sensor_id;sensor_type;location;lat;lon;timestamp;P1;durP1;ratioP1;P2;durP2;ratioP2
19199;SDS011;9732;52.498;5.408;2023-05-10T00:00:39;0.20;;;0.20;;
19199;SDS011;9732;52.498;5.408;2023-05-10T00:03:06;0.20;;;0.20;;
19199;SDS011;9732;52.498;5.408;2023-05-10T00:05:33;0.15;;;0.15;;
19199;SDS011;9732;52.498;5.408;2023-05-10T00:08:00;0.20;;;0.20;;
19199;SDS011;9732;52.498;5.408;2023-05-10T00:10:27;0.20;;;0.20;;
19199;SDS011;9732;52.498;5.408;2023-05-10T00:12:55;0.20;;;0.20;;
19199;SDS011;9732;52.498;5.408;2023-05-10T00:15:22;0.20;;;0.20;;
19199;SDS011;9732;52.498;5.408;2023-05-10T00:17:48;0.20;;;0.20;;
19199;SDS011;9732;52.498;5.408;2023-05-10T00:20:15;0.20;;;0.20;;
19199;SDS011;9732;52.498;5.408;2023-05-10T00:22:42;0.20;;;0.20;;
19199;SDS011;9732;52.498;5.408;2023-05-10T00:25:09;0.10;;;0.10;;
19199;SDS011;9732;52.498;5.408;2023-05-10T00:27:36;0.13;;;0.13;;
19199;SDS011;9732;52.498;5.408;2023-05-10T00:30:04;0.20;;;0.20;;
19199;SDS011;9732;52.498;5.408;2023-05-10T00:32:32;0.10;;;0.10;;
19199;SDS011;9732;52.498;5.408;2023-05-10T00:34:59;0.20;;;0.20;;
19199;SDS011;9732;52.498;5.408;2023-05-10T00:37:25;0.20;;;0.20;;
19199;SDS011;9732;52.498;5.408;2023-05-10T00:39:52;0.20;;;0.20;;
19199;SDS011;9732;52.498;5.408;2023-05-10T00:42:19;0.17;;;0.17;;
19199;SDS011;9732;52.498;5.408;2023-05-10T00:44:46;0.20;;;0.20;;
19199;SDS011;9732;52.498;5.408;2023-05-10T00:47:14;0.10;;;0.10;;
19199;SDS011;9732;52.498;5.408;2023-05-10T00:49:42;0.20;;;0.20;;
19199;SDS011;9732;52.498;5.408;2023-05-10T00:52:09;0.20;;;0.20;;
19199;SDS011;9732;52.498;5.408;2023-05-10T00:54:36;0.20;;;0.20;;
19199;SDS011;9732;52.498;5.408;2023-05-10T00:57:03;0.10;;;0.10;;
19199;SDS011;9732;52.498;5.408;2023-05-10T00:59:30;0.10;;;0.10;;
19199;SDS011;9732;52.498;5.408;2023-05-10T01:01:57;0.20;;;0.20;;
19199;SDS011;9732;52.498;5.408;2023-05-10T01:04:25;0.20;;;0.20;;
19199;SDS011;9732;52.498;5.408;2023-05-10T01:06:53;0.20;;;0.20;;
19199;SDS011;9732;52.498;5.408;2023-05-10T01:09:20;0.10;;;0.10;;
19199;SDS011;9732;52.498;5.408;2023-05-10T01:11:47;0.20;;;0.20;;
19199;SDS011;9732;52.498;5.408;2023-05-10T01:14:15;0.20;;;0.20;;
19199;SDS011;9732;52.498;5.408;2023-05-10T01:16:45;0.20;;;0.20;;
19199;SDS011;9732;52.498;5.408;2023-05-10T01:19:17;0.10;;;0.10;;
19199;SDS011;9732;52.498;5.408;2023-05-10T01:21:49;0.10;;;0.10;;
19199;SDS011;9732;52.498;5.408;2023-05-10T01:27:25;0.20;;;0.20;;
19199;SDS011;9732;52.498;5.408;2023-05-10T01:30:16;0.17;;;0.17;;
19199;SDS011;9732;52.498;5.408;2023-05-10T01:33:05;0.20;;;0.20;;
19199;SDS011;9732;52.498;5.408;2023-05-10T01:35:37;0.20;;;0.20;;
19199;SDS011;9732;52.498;5.408;2023-05-10T01:38:10;0.20;;;0.20;;
19199;SDS011;9732;52.498;5.408;2023-05-10T01:40:46;0.17;;;0.17;;
19199;SDS011;9732;52.498;5.408;2023-05-10T01:43:19;0.20;;;0.20;;
19199;SDS011;9732;52.498;5.408;2023-05-10T01:45:54;0.13;;;0.13;;
19199;SDS011;9732;52.498;5.408;2023-05-10T01:48:30;0.20;;;0.20;;
19199;SDS011;9732;52.498;5.408;2023-05-10T01:50:58;0.20;;;0.20;;
19199;SDS011;9732;52.498;5.408;2023-05-10T01:53:25;0.20;;;0.20;;
19199;SDS011;9732;52.498;5.408;2023-05-10T01:55:53;0.20;;;0.20;;
19199;SDS011;9732;52.498;5.408;2023-05-10T01:58:25;0.20;;;0.20;;
19199;SDS011;9732;52.498;5.408;2023-05-10T02:00:55;0.20;;;0.20;;
19199;SDS011;9732;52.498;5.408;2023-05-10T02:03:24;0.20;;;0.20;;
19199;SDS011;9732;52.498;5.408;2023-05-10T02:05:54;0.20;;;0.20;;
19199;SDS011;9732;52.498;5.408;2023-05-10T02:08:22;0.20;;;0.20;;
19199;SDS011;9732;52.498;5.408;2023-05-10T02:10:50;0.20;;;0.20;;
19199;SDS011;9732;52.498;5.408;2023-05-10T02:13:18;0.10;;;0.10;;
19199;SDS011;9732;52.498;5.408;2023-05-10T02:15:46;0.20;;;0.20;;
19199;SDS011;9732;52.498;5.408;2023-05-10T02:18:14;0.10;;;0.10;;
19199;SDS011;9732;52.498;5.408;2023-05-10T02:20:42;0.20;;;0.20;;
19199;SDS011;9732;52.498;5.408;2023-05-10T02:23:12;0.20;;;0.20;;
19199;SDS011;9732;52.498;5.408;2023-05-10T02:25:40;0.20;;;0.20;;
19199;SDS011;9732;52.498;5.408;2023-05-10T02:28:09;0.20;;;0.20;;
19199;SDS011;9732;52.498;5.408;2023-05-10T02:30:38;0.20;;;0.20;;
19199;SDS011;9732;52.498;5.408;2023-05-10T02:33:05;0.10;;;0.10;;
19199;SDS011;9732;52.498;5.408;2023-05-10T02:35:33;0.20;;;0.20;;
19199;SDS011;9732;52.498;5.408;2023-05-10T02:38:00;0.20;;;0.20;;
19199;SDS011;9732;52.498;5.408;2023-05-10T02:40:29;0.20;;;0.20;;
19199;SDS011;9732;52.498;5.408;2023-05-10T02:42:57;0.20;;;0.20;;
19199;SDS011;9732;52.498;5.408;2023-05-10T02:45:29;0.10;;;0.10;;
19199;SDS011;9732;52.498;5.408;2023-05-10T02:47:58;0.20;;;0.20;;
19199;SDS011;9732;52.498;5.408;2023-05-10T02:50:25;0.20;;;0.20;;
19199;SDS011;9732;52.498;5.408;2023-05-10T02:52:55;0.10;;;0.10;;
19199;SDS011;9732;52.498;5.408;2023-05-10T02:55:26;0.20;;;0.20;;
19199;SDS011;9732;52.498;5.408;2023-05-10T02:58:00;0.20;;;0.20;;
19199;SDS011;9732;52.498;5.408;2023-05-10T03:00:28;0.20;;;0.20;;
19199;SDS011;9732;52.498;5.408;2023-05-10T03:02:55;0.20;;;0.20;;
19199;SDS011;9732;52.498;5.408;2023-05-10T03:05:22;0.10;;;0.10;;
19199;SDS011;9732;52.498;5.408;2023-05-10T03:07:48;0.20;;;0.20;;
19199;SDS011;9732;52.498;5.408;2023-05-10T03:10:17;0.20;;;0.20;;
19199;SDS011;9732;52.498;5.408;2023-05-10T03:12:52;0.20;;;0.20;;
19199;SDS011;9732;52.498;5.408;2023-05-10T03:15:32;0.20;;;0.20;;
19199;SDS011;9732;52.498;5.408;2023-05-10T03:18:09;0.13;;;0.13;;
19199;SDS011;9732;52.498;5.408;2023-05-10T03:20:41;0.20;;;0.20;;
19199;SDS011;9732;52.498;5.408;2023-05-10T03:23:11;0.20;;;0.20;;
19199;SDS011;9732;52.498;5.408;2023-05-10T03:25:45;0.10;;;0.10;;
19199;SDS011;9732;52.498;5.408;2023-05-10T03:28:15;0.20;;;0.20;;
19199;SDS011;9732;52.498;5.408;2023-05-10T03:30:43;0.20;;;0.20;;
19199;SDS011;9732;52.498;5.408;2023-05-10T03:33:11;0.15;;;0.15;;
19199;SDS011;9732;52.498;5.408;2023-05-10T03:35:39;0.10;;;0.10;;
19199;SDS011;9732;52.498;5.408;2023-05-10T03:38:05;0.20;;;0.20;;
19199;SDS011;9732;52.498;5.408;2023-05-10T03:40:32;0.10;;;0.10;;
19199;SDS011;9732;52.498;5.408;2023-05-10T03:42:59;0.10;;;0.10;;
19199;SDS011;9732;52.498;5.408;2023-05-10T03:45:27;0.20;;;0.20;;
19199;SDS011;9732;52.498;5.408;2023-05-10T03:47:54;0.20;;;0.20;;
19199;SDS011;9732;52.498;5.408;2023-05-10T03:50:21;0.20;;;0.20;;
19199;SDS011;9732;52.498;5.408;2023-05-10T03:52:48;0.10;;;0.10;;
19199;SDS011;9732;52.498;5.408;2023-05-10T03:55:15;0.20;;;0.20;;
19199;SDS011;9732;52.498;5.408;2023-05-10T03:57:42;0.20;;;0.20;;
19199;SDS011;9732;52.498;5.408;2023-05-10T04:00:09;0.15;;;0.15;;
19199;SDS011;9732;52.498;5.408;2023-05-10T04:02:38;0.13;;;0.13;;
19199;SDS011;9732;52.498;5.408;2023-05-10T04:05:05;0.20;;;0.20;;
19199;SDS011;9732;52.498;5.408;2023-05-10T04:07:32;0.20;;;0.20;;
19199;SDS011;9732;52.498;5.408;2023-05-10T04:09:58;0.15;;;0.15;;
19199;SDS011;9732;52.498;5.408;2023-05-10T04:12:25;0.20;;;0.20;;
19199;SDS011;9732;52.498;5.408;2023-05-10T04:14:52;0.20;;;0.20;;
19199;SDS011;9732;52.498;5.408;2023-05-10T04:17:18;0.20;;;0.20;;
19199;SDS011;9732;52.498;5.408;2023-05-10T04:19:47;0.20;;;0.20;;
19199;SDS011;9732;52.498;5.408;2023-05-10T04:22:13;0.20;;;0.20;;
19199;SDS011;9732;52.498;5.408;2023-05-10T04:24:40;0.20;;;0.20;;
19199;SDS011;9732;52.498;5.408;2023-05-10T04:27:07;0.20;;;0.20;;
19199;SDS011;9732;52.498;5.408;2023-05-10T04:29:34;0.20;;;0.20;;
19199;SDS011;9732;52.498;5.408;2023-05-10T04:32:01;0.20;;;0.20;;
19199;SDS011;9732;52.498;5.408;2023-05-10T04:34:29;0.20;;;0.20;;
19199;SDS011;9732;52.498;5.408;2023-05-10T04:36:57;0.17;;;0.17;;
19199;SDS011;9732;52.498;5.408;2023-05-10T04:39:24;0.20;;;0.20;;
19199;SDS011;9732;52.498;5.408;2023-05-10T04:41:50;0.20;;;0.20;;
19199;SDS011;9732;52.498;5.408;2023-05-10T04:44:17;0.20;;;0.20;;
19199;SDS011;9732;52.498;5.408;2023-05-10T04:46:44;0.10;;;0.10;;
19199;SDS011;9732;52.498;5.408;2023-05-10T04:49:11;0.20;;;0.20;;
19199;SDS011;9732;52.498;5.408;2023-05-10T04:51:38;0.20;;;0.20;;
19199;SDS011;9732;52.498;5.408;2023-05-10T04:54:06;0.10;;;0.10;;
19199;SDS011;9732;52.498;5.408;2023-05-10T04:56:34;0.20;;;0.20;;
19199;SDS011;9732;52.498;5.408;2023-05-10T04:59:01;0.10;;;0.10;;
19199;SDS011;9732;52.498;5.408;2023-05-10T05:01:30;0.10;;;0.10;;
19199;SDS011;9732;52.498;5.408;2023-05-10T05:03:57;0.20;;;0.20;;
19199;SDS011;9732;52.498;5.408;2023-05-10T05:06:24;0.10;;;0.10;;
19199;SDS011;9732;52.498;5.408;2023-05-10T05:08:52;0.20;;;0.20;;
19199;SDS011;9732;52.498;5.408;2023-05-10T05:11:20;0.17;;;0.17;;
19199;SDS011;9732;52.498;5.408;2023-05-10T05:13:47;0.20;;;0.20;;
19199;SDS011;9732;52.498;5.408;2023-05-10T05:16:14;0.20;;;0.20;;
19199;SDS011;9732;52.498;5.408;2023-05-10T05:18:41;0.20;;;0.20;;
19199;SDS011;9732;52.498;5.408;2023-05-10T05:21:14;0.20;;;0.20;;
19199;SDS011;9732;52.498;5.408;2023-05-10T05:23:41;0.20;;;0.20;;
19199;SDS011;9732;52.498;5.408;2023-05-10T05:26:08;0.20;;;0.20;;
19199;SDS011;9732;52.498;5.408;2023-05-10T05:28:37;0.20;;;0.20;;
19199;SDS011;9732;52.498;5.408;2023-05-10T05:31:04;0.20;;;0.20;;
19199;SDS011;9732;52.498;5.408;2023-05-10T05:33:30;0.20;;;0.20;;
19199;SDS011;9732;52.498;5.408;2023-05-10T05:36:00;0.10;;;0.10;;
19199;SDS011;9732;52.498;5.408;2023-05-10T05:38:28;0.20;;;0.20;;
19199;SDS011;9732;52.498;5.408;2023-05-10T05:40:54;0.20;;;0.20;;
19199;SDS011;9732;52.498;5.408;2023-05-10T05:43:21;0.20;;;0.20;;
19199;SDS011;9732;52.498;5.408;2023-05-10T05:45:51;0.20;;;0.20;;
19199;SDS011;9732;52.498;5.408;2023-05-10T05:48:18;0.10;;;0.10;;
19199;SDS011;9732;52.498;5.408;2023-05-10T05:50:45;0.20;;;0.20;;
19199;SDS011;9732;52.498;5.408;2023-05-10T05:53:12;0.10;;;0.10;;
19199;SDS011;9732;52.498;5.408;2023-05-10T05:55:39;0.20;;;0.20;;
19199;SDS011;9732;52.498;5.408;2023-05-10T05:58:06;0.20;;;0.20;;
19199;SDS011;9732;52.498;5.408;2023-05-10T06:00:33;0.10;;;0.10;;
19199;SDS011;9732;52.498;5.408;2023-05-10T06:03:01;0.20;;;0.20;;
19199;SDS011;9732;52.498;5.408;2023-05-10T06:05:28;0.17;;;0.17;;
19199;SDS011;9732;52.498;5.408;2023-05-10T06:07:55;0.20;;;0.20;;
19199;SDS011;9732;52.498;5.408;2023-05-10T06:10:22;0.20;;;0.20;;
19199;SDS011;9732;52.498;5.408;2023-05-10T06:12:50;0.20;;;0.20;;
19199;SDS011;9732;52.498;5.408;2023-05-10T06:15:17;0.15;;;0.15;;
19199;SDS011;9732;52.498;5.408;2023-05-10T06:17:43;0.20;;;0.20;;
19199;SDS011;9732;52.498;5.408;2023-05-10T06:20:13;0.20;;;0.20;;
19199;SDS011;9732;52.498;5.408;2023-05-10T06:22:40;0.13;;;0.13;;
19199;SDS011;9732;52.498;5.408;2023-05-10T06:25:07;0.20;;;0.20;;
19199;SDS011;9732;52.498;5.408;2023-05-10T06:27:35;0.20;;;0.20;;
19199;SDS011;9732;52.498;5.408;2023-05-10T06:30:02;0.20;;;0.20;;
19199;SDS011;9732;52.498;5.408;2023-05-10T06:32:29;0.10;;;0.10;;
19199;SDS011;9732;52.498;5.408;2023-05-10T06:34:56;0.20;;;0.20;;
19199;SDS011;9732;52.498;5.408;2023-05-10T06:37:24;0.20;;;0.20;;
19199;SDS011;9732;52.498;5.408;2023-05-10T06:39:51;0.20;;;0.20;;
19199;SDS011;9732;52.498;5.408;2023-05-10T06:42:18;0.20;;;0.20;;
19199;SDS011;9732;52.498;5.408;2023-05-10T06:44:44;0.20;;;0.20;;
19199;SDS011;9732;52.498;5.408;2023-05-10T06:47:11;0.20;;;0.20;;
19199;SDS011;9732;52.498;5.408;2023-05-10T06:49:38;0.20;;;0.20;;
19199;SDS011;9732;52.498;5.408;2023-05-10T06:52:05;0.20;;;0.20;;
19199;SDS011;9732;52.498;5.408;2023-05-10T06:54:33;0.20;;;0.20;;
19199;SDS011;9732;52.498;5.408;2023-05-10T06:56:59;0.20;;;0.20;;
19199;SDS011;9732;52.498;5.408;2023-05-10T06:59:28;0.20;;;0.20;;
19199;SDS011;9732;52.498;5.408;2023-05-10T07:01:54;0.20;;;0.20;;
19199;SDS011;9732;52.498;5.408;2023-05-10T07:04:21;0.10;;;0.10;;
19199;SDS011;9732;52.498;5.408;2023-05-10T07:06:48;0.20;;;0.20;;
19199;SDS011;9732;52.498;5.408;2023-05-10T07:09:15;0.20;;;0.20;;
19199;SDS011;9732;52.498;5.408;2023-05-10T07:11:43;0.20;;;0.20;;
19199;SDS011;9732;52.498;5.408;2023-05-10T07:14:10;0.10;;;0.10;;
19199;SDS011;9732;52.498;5.408;2023-05-10T07:16:37;0.10;;;0.10;;
19199;SDS011;9732;52.498;5.408;2023-05-10T07:19:03;0.20;;;0.20;;
19199;SDS011;9732;52.498;5.408;2023-05-10T07:21:31;0.10;;;0.10;;
19199;SDS011;9732;52.498;5.408;2023-05-10T07:23:58;0.20;;;0.20;;
19199;SDS011;9732;52.498;5.408;2023-05-10T07:26:25;0.10;;;0.10;;
19199;SDS011;9732;52.498;5.408;2023-05-10T07:28:53;0.20;;;0.20;;
19199;SDS011;9732;52.498;5.408;2023-05-10T07:31:20;0.20;;;0.20;;
19199;SDS011;9732;52.498;5.408;2023-05-10T07:33:46;0.20;;;0.20;;
19199;SDS011;9732;52.498;5.408;2023-05-10T07:36:13;0.20;;;0.20;;
19199;SDS011;9732;52.498;5.408;2023-05-10T07:38:40;0.10;;;0.10;;
19199;SDS011;9732;52.498;5.408;2023-05-10T07:41:06;0.20;;;0.20;;
19199;SDS011;9732;52.498;5.408;2023-05-10T07:43:33;0.20;;;0.20;;
19199;SDS011;9732;52.498;5.408;2023-05-10T07:46:01;0.20;;;0.20;;
19199;SDS011;9732;52.498;5.408;2023-05-10T07:48:28;0.17;;;0.17;;
19199;SDS011;9732;52.498;5.408;2023-05-10T07:50:55;0.10;;;0.10;;
19199;SDS011;9732;52.498;5.408;2023-05-10T07:53:21;0.17;;;0.17;;
19199;SDS011;9732;52.498;5.408;2023-05-10T07:55:50;0.15;;;0.15;;
19199;SDS011;9732;52.498;5.408;2023-05-10T07:58:17;0.10;;;0.10;;
19199;SDS011;9732;52.498;5.408;2023-05-10T08:00:44;0.10;;;0.10;;
19199;SDS011;9732;52.498;5.408;2023-05-10T08:03:12;0.10;;;0.10;;
19199;SDS011;9732;52.498;5.408;2023-05-10T08:05:39;0.20;;;0.20;;
19199;SDS011;9732;52.498;5.408;2023-05-10T08:08:05;0.17;;;0.17;;
19199;SDS011;9732;52.498;5.408;2023-05-10T08:10:32;0.10;;;0.10;;
19199;SDS011;9732;52.498;5.408;2023-05-10T08:12:59;0.13;;;0.13;;
19199;SDS011;9732;52.498;5.408;2023-05-10T08:15:26;0.10;;;0.10;;
19199;SDS011;9732;52.498;5.408;2023-05-10T08:17:53;0.20;;;0.20;;
19199;SDS011;9732;52.498;5.408;2023-05-10T08:20:21;0.17;;;0.17;;
19199;SDS011;9732;52.498;5.408;2023-05-10T08:22:48;0.20;;;0.20;;
19199;SDS011;9732;52.498;5.408;2023-05-10T08:25:15;0.20;;;0.20;;
19199;SDS011;9732;52.498;5.408;2023-05-10T08:27:42;0.20;;;0.20;;
19199;SDS011;9732;52.498;5.408;2023-05-10T08:30:09;0.10;;;0.10;;
19199;SDS011;9732;52.498;5.408;2023-05-10T08:32:37;0.10;;;0.10;;
19199;SDS011;9732;52.498;5.408;2023-05-10T08:35:04;0.10;;;0.10;;
19199;SDS011;9732;52.498;5.408;2023-05-10T08:37:32;0.10;;;0.10;;
19199;SDS011;9732;52.498;5.408;2023-05-10T08:39:59;0.10;;;0.10;;
19199;SDS011;9732;52.498;5.408;2023-05-10T08:42:28;0.10;;;0.10;;
19199;SDS011;9732;52.498;5.408;2023-05-10T08:44:59;0.10;;;0.10;;
19199;SDS011;9732;52.498;5.408;2023-05-10T08:47:27;0.17;;;0.17;;
19199;SDS011;9732;52.498;5.408;2023-05-10T08:49:55;0.10;;;0.10;;
19199;SDS011;9732;52.498;5.408;2023-05-10T08:52:24;0.10;;;0.10;;
19199;SDS011;9732;52.498;5.408;2023-05-10T08:54:55;0.15;;;0.15;;
19199;SDS011;9732;52.498;5.408;2023-05-10T08:57:22;0.10;;;0.10;;
19199;SDS011;9732;52.498;5.408;2023-05-10T08:59:49;0.10;;;0.10;;
19199;SDS011;9732;52.498;5.408;2023-05-10T09:02:15;0.10;;;0.10;;
19199;SDS011;9732;52.498;5.408;2023-05-10T09:04:44;0.10;;;0.10;;
19199;SDS011;9732;52.498;5.408;2023-05-10T09:07:11;0.10;;;0.10;;
19199;SDS011;9732;52.498;5.408;2023-05-10T09:09:37;0.10;;;0.10;;
19199;SDS011;9732;52.498;5.408;2023-05-10T09:12:06;0.10;;;0.10;;
19199;SDS011;9732;52.498;5.408;2023-05-10T09:14:36;0.20;;;0.20;;
19199;SDS011;9732;52.498;5.408;2023-05-10T09:17:03;0.20;;;0.20;;
19199;SDS011;9732;52.498;5.408;2023-05-10T09:19:30;0.15;;;0.15;;
19199;SDS011;9732;52.498;5.408;2023-05-10T09:21:57;0.10;;;0.10;;
19199;SDS011;9732;52.498;5.408;2023-05-10T09:24:25;0.10;;;0.10;;
19199;SDS011;9732;52.498;5.408;2023-05-10T09:26:52;0.10;;;0.10;;
19199;SDS011;9732;52.498;5.408;2023-05-10T09:29:20;0.10;;;0.10;;
19199;SDS011;9732;52.498;5.408;2023-05-10T09:31:48;0.10;;;0.10;;
19199;SDS011;9732;52.498;5.408;2023-05-10T09:34:20;0.10;;;0.10;;
19199;SDS011;9732;52.498;5.408;2023-05-10T09:36:55;0.10;;;0.10;;
19199;SDS011;9732;52.498;5.408;2023-05-10T09:39:32;0.10;;;0.10;;
19199;SDS011;9732;52.498;5.408;2023-05-10T09:42:01;0.10;;;0.10;;
19199;SDS011;9732;52.498;5.408;2023-05-10T09:44:31;0.10;;;0.10;;
19199;SDS011;9732;52.498;5.408;2023-05-10T09:46:58;0.10;;;0.10;;
19199;SDS011;9732;52.498;5.408;2023-05-10T09:49:25;0.10;;;0.10;;
19199;SDS011;9732;52.498;5.408;2023-05-10T09:51:59;0.10;;;0.10;;
19199;SDS011;9732;52.498;5.408;2023-05-10T09:54:28;0.10;;;0.10;;
19199;SDS011;9732;52.498;5.408;2023-05-10T09:56:55;0.10;;;0.10;;
19199;SDS011;9732;52.498;5.408;2023-05-10T09:59:21;0.00;;;0.00;;
19199;SDS011;9732;52.498;5.408;2023-05-10T10:01:52;0.10;;;0.10;;
19199;SDS011;9732;52.498;5.408;2023-05-10T10:04:21;0.10;;;0.10;;
19199;SDS011;9732;52.498;5.408;2023-05-10T10:06:57;0.10;;;0.10;;
19199;SDS011;9732;52.498;5.408;2023-05-10T10:09:25;0.00;;;0.00;;
19199;SDS011;9732;52.498;5.408;2023-05-10T10:11:52;0.10;;;0.10;;
19199;SDS011;9732;52.498;5.408;2023-05-10T10:14:21;0.00;;;0.00;;
19199;SDS011;9732;52.498;5.408;2023-05-10T10:16:48;0.10;;;0.10;;
19199;SDS011;9732;52.498;5.408;2023-05-10T10:19:16;0.10;;;0.10;;
19199;SDS011;9732;52.498;5.408;2023-05-10T10:21:44;0.10;;;0.10;;
19199;SDS011;9732;52.498;5.408;2023-05-10T10:24:11;0.10;;;0.10;;
19199;SDS011;9732;52.498;5.408;2023-05-10T10:26:37;0.10;;;0.10;;
19199;SDS011;9732;52.498;5.408;2023-05-10T10:29:09;0.10;;;0.10;;
19199;SDS011;9732;52.498;5.408;2023-05-10T10:31:46;0.10;;;0.10;;
19199;SDS011;9732;52.498;5.408;2023-05-10T10:34:24;0.10;;;0.10;;
19199;SDS011;9732;52.498;5.408;2023-05-10T10:36:53;0.10;;;0.10;;
19199;SDS011;9732;52.498;5.408;2023-05-10T10:39:21;0.10;;;0.10;;
19199;SDS011;9732;52.498;5.408;2023-05-10T10:41:50;0.10;;;0.10;;
19199;SDS011;9732;52.498;5.408;2023-05-10T10:44:25;0.10;;;0.10;;
19199;SDS011;9732;52.498;5.408;2023-05-10T10:47:00;0.05;;;0.05;;
19199;SDS011;9732;52.498;5.408;2023-05-10T10:49:37;0.10;;;0.10;;
19199;SDS011;9732;52.498;5.408;2023-05-10T10:52:14;0.00;;;0.00;;
19199;SDS011;9732;52.498;5.408;2023-05-10T10:54:49;0.10;;;0.10;;
19199;SDS011;9732;52.498;5.408;2023-05-10T10:57:17;0.00;;;0.00;;
19199;SDS011;9732;52.498;5.408;2023-05-10T10:59:46;0.00;;;0.00;;
19199;SDS011;9732;52.498;5.408;2023-05-10T11:05:01;0.10;;;0.10;;
19199;SDS011;9732;52.498;5.408;2023-05-10T11:07:52;0.10;;;0.10;;
19199;SDS011;9732;52.498;5.408;2023-05-10T11:10:19;0.10;;;0.10;;
19199;SDS011;9732;52.498;5.408;2023-05-10T11:12:53;0.10;;;0.10;;
19199;SDS011;9732;52.498;5.408;2023-05-10T11:15:28;0.05;;;0.05;;
19199;SDS011;9732;52.498;5.408;2023-05-10T11:17:55;0.10;;;0.10;;
19199;SDS011;9732;52.498;5.408;2023-05-10T11:20:24;0.10;;;0.10;;
19199;SDS011;9732;52.498;5.408;2023-05-10T11:22:58;0.10;;;0.10;;
19199;SDS011;9732;52.498;5.408;2023-05-10T11:25:40;0.10;;;0.10;;
19199;SDS011;9732;52.498;5.408;2023-05-10T11:28:08;0.00;;;0.00;;
19199;SDS011;9732;52.498;5.408;2023-05-10T11:30:35;0.10;;;0.10;;
19199;SDS011;9732;52.498;5.408;2023-05-10T11:33:02;0.00;;;0.00;;
19199;SDS011;9732;52.498;5.408;2023-05-10T11:35:30;0.10;;;0.10;;
19199;SDS011;9732;52.498;5.408;2023-05-10T11:38:02;0.10;;;0.10;;
19199;SDS011;9732;52.498;5.408;2023-05-10T11:40:31;0.10;;;0.10;;
19199;SDS011;9732;52.498;5.408;2023-05-10T11:42:58;0.10;;;0.10;;
19199;SDS011;9732;52.498;5.408;2023-05-10T11:45:25;0.10;;;0.10;;
19199;SDS011;9732;52.498;5.408;2023-05-10T11:47:53;0.20;;;0.20;;
19199;SDS011;9732;52.498;5.408;2023-05-10T11:50:19;0.10;;;0.10;;
19199;SDS011;9732;52.498;5.408;2023-05-10T11:52:51;0.10;;;0.10;;
19199;SDS011;9732;52.498;5.408;2023-05-10T11:55:18;0.10;;;0.10;;
19199;SDS011;9732;52.498;5.408;2023-05-10T11:57:45;0.10;;;0.10;;
19199;SDS011;9732;52.498;5.408;2023-05-10T12:00:12;0.10;;;0.10;;
19199;SDS011;9732;52.498;5.408;2023-05-10T12:02:40;0.10;;;0.10;;
19199;SDS011;9732;52.498;5.408;2023-05-10T12:05:07;0.17;;;0.17;;
19199;SDS011;9732;52.498;5.408;2023-05-10T12:07:35;0.10;;;0.10;;
19199;SDS011;9732;52.498;5.408;2023-05-10T12:10:03;0.10;;;0.10;;
19199;SDS011;9732;52.498;5.408;2023-05-10T12:12:38;0.10;;;0.10;;
19199;SDS011;9732;52.498;5.408;2023-05-10T12:15:07;0.10;;;0.10;;
19199;SDS011;9732;52.498;5.408;2023-05-10T12:17:37;0.20;;;0.20;;
19199;SDS011;9732;52.498;5.408;2023-05-10T12:20:15;0.17;;;0.17;;
19199;SDS011;9732;52.498;5.408;2023-05-10T12:22:46;0.10;;;0.10;;
19199;SDS011;9732;52.498;5.408;2023-05-10T12:25:16;0.03;;;0.03;;
19199;SDS011;9732;52.498;5.408;2023-05-10T12:27:50;0.10;;;0.10;;
19199;SDS011;9732;52.498;5.408;2023-05-10T12:30:21;0.10;;;0.10;;
19199;SDS011;9732;52.498;5.408;2023-05-10T12:32:49;0.10;;;0.10;;
19199;SDS011;9732;52.498;5.408;2023-05-10T12:35:16;0.05;;;0.05;;
19199;SDS011;9732;52.498;5.408;2023-05-10T12:37:46;0.10;;;0.10;;
19199;SDS011;9732;52.498;5.408;2023-05-10T12:40:13;0.10;;;0.10;;
19199;SDS011;9732;52.498;5.408;2023-05-10T12:42:41;0.00;;;0.00;;
19199;SDS011;9732;52.498;5.408;2023-05-10T12:45:10;0.00;;;0.00;;
19199;SDS011;9732;52.498;5.408;2023-05-10T12:47:37;0.00;;;0.00;;
19199;SDS011;9732;52.498;5.408;2023-05-10T12:50:04;0.10;;;0.10;;
19199;SDS011;9732;52.498;5.408;2023-05-10T12:52:31;0.10;;;0.10;;
19199;SDS011;9732;52.498;5.408;2023-05-10T12:54:58;0.00;;;0.00;;
19199;SDS011;9732;52.498;5.408;2023-05-10T12:57:27;0.00;;;0.00;;
19199;SDS011;9732;52.498;5.408;2023-05-10T12:59:53;0.00;;;0.00;;
19199;SDS011;9732;52.498;5.408;2023-05-10T13:02:20;0.00;;;0.00;;
19199;SDS011;9732;52.498;5.408;2023-05-10T13:04:48;0.00;;;0.00;;
19199;SDS011;9732;52.498;5.408;2023-05-10T13:07:15;0.00;;;0.00;;
19199;SDS011;9732;52.498;5.408;2023-05-10T13:09:42;0.00;;;0.00;;
19199;SDS011;9732;52.498;5.408;2023-05-10T13:12:08;0.00;;;0.00;;
19199;SDS011;9732;52.498;5.408;2023-05-10T13:14:36;0.00;;;0.00;;
19199;SDS011;9732;52.498;5.408;2023-05-10T13:17:05;0.00;;;0.00;;
19199;SDS011;9732;52.498;5.408;2023-05-10T13:19:32;0.00;;;0.00;;
19199;SDS011;9732;52.498;5.408;2023-05-10T13:21:59;0.00;;;0.00;;
19199;SDS011;9732;52.498;5.408;2023-05-10T13:24:25;0.00;;;0.00;;
19199;SDS011;9732;52.498;5.408;2023-05-10T13:26:52;0.00;;;0.00;;
19199;SDS011;9732;52.498;5.408;2023-05-10T13:29:19;0.00;;;0.00;;
19199;SDS011;9732;52.498;5.408;2023-05-10T13:31:48;0.00;;;0.00;;
19199;SDS011;9732;52.498;5.408;2023-05-10T13:34:15;0.00;;;0.00;;
19199;SDS011;9732;52.498;5.408;2023-05-10T13:36:45;0.10;;;0.10;;
19199;SDS011;9732;52.498;5.408;2023-05-10T13:39:12;0.00;;;0.00;;
19199;SDS011;9732;52.498;5.408;2023-05-10T13:41:38;0.00;;;0.00;;
19199;SDS011;9732;52.498;5.408;2023-05-10T13:44:05;0.00;;;0.00;;
19199;SDS011;9732;52.498;5.408;2023-05-10T13:46:32;0.00;;;0.00;;
19199;SDS011;9732;52.498;5.408;2023-05-10T13:49:00;0.00;;;0.00;;
19199;SDS011;9732;52.498;5.408;2023-05-10T13:51:26;0.10;;;0.10;;
19199;SDS011;9732;52.498;5.408;2023-05-10T13:53:53;0.00;;;0.00;;
19199;SDS011;9732;52.498;5.408;2023-05-10T13:56:20;0.05;;;0.05;;
19199;SDS011;9732;52.498;5.408;2023-05-10T13:58:47;0.10;;;0.10;;
19199;SDS011;9732;52.498;5.408;2023-05-10T14:01:13;0.10;;;0.10;;
19199;SDS011;9732;52.498;5.408;2023-05-10T14:03:40;0.00;;;0.00;;
19199;SDS011;9732;52.498;5.408;2023-05-10T14:06:08;0.10;;;0.10;;
19199;SDS011;9732;52.498;5.408;2023-05-10T14:08:35;0.00;;;0.00;;
19199;SDS011;9732;52.498;5.408;2023-05-10T14:11:02;0.10;;;0.10;;
19199;SDS011;9732;52.498;5.408;2023-05-10T14:13:29;0.10;;;0.10;;
19199;SDS011;9732;52.498;5.408;2023-05-10T14:15:56;0.08;;;0.08;;
19199;SDS011;9732;52.498;5.408;2023-05-10T14:18:25;0.00;;;0.00;;
19199;SDS011;9732;52.498;5.408;2023-05-10T14:20:52;0.10;;;0.10;;
19199;SDS011;9732;52.498;5.408;2023-05-10T14:23:21;0.00;;;0.00;;
19199;SDS011;9732;52.498;5.408;2023-05-10T14:25:49;0.00;;;0.00;;
19199;SDS011;9732;52.498;5.408;2023-05-10T14:28:16;0.10;;;0.10;;
19199;SDS011;9732;52.498;5.408;2023-05-10T14:30:43;0.10;;;0.10;;
19199;SDS011;9732;52.498;5.408;2023-05-10T14:33:10;0.10;;;0.10;;
19199;SDS011;9732;52.498;5.408;2023-05-10T14:35:37;0.00;;;0.00;;
19199;SDS011;9732;52.498;5.408;2023-05-10T14:38:03;0.00;;;0.00;;
19199;SDS011;9732;52.498;5.408;2023-05-10T14:40:32;0.10;;;0.10;;
19199;SDS011;9732;52.498;5.408;2023-05-10T14:42:59;0.10;;;0.10;;
19199;SDS011;9732;52.498;5.408;2023-05-10T14:45:26;0.00;;;0.00;;
19199;SDS011;9732;52.498;5.408;2023-05-10T14:47:52;0.00;;;0.00;;
19199;SDS011;9732;52.498;5.408;2023-05-10T14:50:19;0.10;;;0.10;;
19199;SDS011;9732;52.498;5.408;2023-05-10T14:52:46;0.00;;;0.00;;
19199;SDS011;9732;52.498;5.408;2023-05-10T14:55:14;0.00;;;0.00;;
19199;SDS011;9732;52.498;5.408;2023-05-10T14:57:42;0.10;;;0.10;;
19199;SDS011;9732;52.498;5.408;2023-05-10T15:00:12;0.10;;;0.10;;
19199;SDS011;9732;52.498;5.408;2023-05-10T15:02:41;0.08;;;0.08;;
19199;SDS011;9732;52.498;5.408;2023-05-10T15:05:08;0.00;;;0.00;;
19199;SDS011;9732;52.498;5.408;2023-05-10T15:07:34;0.05;;;0.05;;
19199;SDS011;9732;52.498;5.408;2023-05-10T15:10:01;0.10;;;0.10;;
19199;SDS011;9732;52.498;5.408;2023-05-10T15:12:28;0.10;;;0.10;;